sensor_id;sensor_type;location;lat;lon;timestamp;pressure;altitude;pressure_sealevel;temperature;humidity
74103;BME280;62853;46.166;3.640;2022-09-09T00:00:38;100677.75;;;14.92;100.00
74103;BME280;62853;46.166;3.640;2022-09-09T00:03:17;100683.53;;;14.97;100.00
74103;BME280;62853;46.166;3.640;2022-09-09T00:05:54;100681.38;;;15.02;100.00
74103;BME280;62853;46.166;3.640;2022-09-09T00:08:31;100678.25;;;14.97;100.00
74103;BME280;62853;46.166;3.640;2022-09-09T00:11:01;100678.81;;;14.89;100.00
74103;BME280;62853;46.166;3.640;2022-09-09T00:13:46;100676.63;;;14.83;100.00
74103;BME280;62853;46.166;3.640;2022-09-09T00:16:17;100682.22;;;14.91;100.00
74103;BME280;62853;46.166;3.640;2022-09-09T00:19:07;100679.69;;;14.90;100.00
74103;BME280;62853;46.166;3.640;2022-09-09T00:21:49;100672.66;;;14.88;100.00
74103;BME280;62853;46.166;3.640;2022-09-09T00:24:42;100671.84;;;14.88;100.00
74103;BME280;62853;46.166;3.640;2022-09-09T00:27:18;100670.84;;;14.89;100.00
74103;BME280;62853;46.166;3.640;2022-09-09T00:30:21;100666.41;;;14.90;100.00
74103;BME280;62853;46.166;3.640;2022-09-09T00:33:00;100659.63;;;14.74;100.00
74103;BME280;62853;46.166;3.640;2022-09-09T00:35:38;100659.34;;;14.66;100.00
74103;BME280;62853;46.166;3.640;2022-09-09T00:38:24;100654.88;;;14.66;100.00
74103;BME280;62853;46.166;3.640;2022-09-09T00:43:40;100651.41;;;14.66;100.00
74103;BME280;62853;46.166;3.640;2022-09-09T00:46:10;100654.03;;;14.66;100.00
74103;BME280;62853;46.166;3.640;2022-09-09T00:54:15;100652.84;;;14.70;100.00
74103;BME280;62853;46.166;3.640;2022-09-09T00:59:52;100650.53;;;14.65;100.00
74103;BME280;62853;46.166;3.640;2022-09-09T01:02:29;100646.72;;;14.69;100.00
74103;BME280;62853;46.166;3.640;2022-09-09T01:05:10;100644.28;;;14.66;100.00
74103;BME280;62853;46.166;3.640;2022-09-09T01:07:38;100649.47;;;14.68;100.00
74103;BME280;62853;46.166;3.640;2022-09-09T01:10:11;100639.66;;;14.57;100.00
74103;BME280;62853;46.166;3.640;2022-09-09T01:12:42;100645.28;;;14.52;100.00
74103;BME280;62853;46.166;3.640;2022-09-09T01:15:10;100644.09;;;14.57;100.00
74103;BME280;62853;46.166;3.640;2022-09-09T01:17:53;100646.53;;;14.60;100.00
74103;BME280;62853;46.166;3.640;2022-09-09T01:20:25;100643.31;;;14.43;100.00
74103;BME280;62853;46.166;3.640;2022-09-09T01:23:30;100643.94;;;14.47;100.00
74103;BME280;62853;46.166;3.640;2022-09-09T01:26:15;100641.75;;;14.41;100.00
74103;BME280;62853;46.166;3.640;2022-09-09T01:28:48;100643.41;;;14.42;100.00
74103;BME280;62853;46.166;3.640;2022-09-09T01:31:27;100630.94;;;14.44;100.00
74103;BME280;62853;46.166;3.640;2022-09-09T01:33:54;100635.84;;;14.37;100.00
74103;BME280;62853;46.166;3.640;2022-09-09T01:36:31;100623.97;;;14.30;100.00
74103;BME280;62853;46.166;3.640;2022-09-09T01:39:00;100629.34;;;14.41;100.00
74103;BME280;62853;46.166;3.640;2022-09-09T01:41:26;100629.34;;;14.41;100.00
74103;BME280;62853;46.166;3.640;2022-09-09T01:43:53;100633.00;;;14.27;100.00
74103;BME280;62853;46.166;3.640;2022-09-09T01:46:21;100624.22;;;14.27;100.00
74103;BME280;62853;46.166;3.640;2022-09-09T01:48:48;100626.06;;;14.38;100.00
74103;BME280;62853;46.166;3.640;2022-09-09T01:51:14;100623.88;;;14.31;100.00
74103;BME280;62853;46.166;3.640;2022-09-09T01:53:40;100615.31;;;14.28;100.00
74103;BME280;62853;46.166;3.640;2022-09-09T01:56:13;100615.53;;;14.25;100.00
74103;BME280;62853;46.166;3.640;2022-09-09T02:01:27;100611.22;;;14.24;100.00
74103;BME280;62853;46.166;3.640;2022-09-09T02:03:57;100593.16;;;14.29;100.00
74103;BME280;62853;46.166;3.640;2022-09-09T02:09:00;100608.88;;;14.19;100.00
74103;BME280;62853;46.166;3.640;2022-09-09T02:11:28;100606.19;;;14.32;100.00
74103;BME280;62853;46.166;3.640;2022-09-09T02:14:08;100610.22;;;14.25;100.00
74103;BME280;62853;46.166;3.640;2022-09-09T02:16:41;100606.47;;;14.16;100.00
74103;BME280;62853;46.166;3.640;2022-09-09T02:19:21;100614.53;;;14.14;100.00
74103;BME280;62853;46.166;3.640;2022-09-09T02:21:50;100617.66;;;14.20;100.00
74103;BME280;62853;46.166;3.640;2022-09-09T02:24:17;100614.88;;;14.10;100.00
74103;BME280;62853;46.166;3.640;2022-09-09T02:26:44;100616.44;;;14.12;100.00
74103;BME280;62853;46.166;3.640;2022-09-09T02:29:24;100604.28;;;14.10;100.00
74103;BME280;62853;46.166;3.640;2022-09-09T02:31:51;100607.56;;;14.13;100.00
74103;BME280;62853;46.166;3.640;2022-09-09T02:34:21;100607.66;;;14.12;100.00
74103;BME280;62853;46.166;3.640;2022-09-09T02:36:50;100610.19;;;14.13;100.00
74103;BME280;62853;46.166;3.640;2022-09-09T02:39:18;100599.63;;;14.25;100.00
74103;BME280;62853;46.166;3.640;2022-09-09T02:41:44;100599.38;;;14.17;100.00
74103;BME280;62853;46.166;3.640;2022-09-09T02:44:15;100604.44;;;14.20;100.00
74103;BME280;62853;46.166;3.640;2022-09-09T02:52:15;100608.38;;;14.14;100.00
74103;BME280;62853;46.166;3.640;2022-09-09T02:54:41;100602.66;;;14.20;100.00
74103;BME280;62853;46.166;3.640;2022-09-09T02:57:21;100606.03;;;14.22;100.00
74103;BME280;62853;46.166;3.640;2022-09-09T02:59:48;100597.97;;;14.24;100.00
74103;BME280;62853;46.166;3.640;2022-09-09T03:02:13;100590.84;;;14.24;100.00
74103;BME280;62853;46.166;3.640;2022-09-09T03:04:39;100600.56;;;14.12;100.00
74103;BME280;62853;46.166;3.640;2022-09-09T03:07:05;100605.00;;;14.12;100.00
74103;BME280;62853;46.166;3.640;2022-09-09T03:09:31;100599.00;;;14.10;100.00
74103;BME280;62853;46.166;3.640;2022-09-09T03:11:58;100599.13;;;14.20;100.00
74103;BME280;62853;46.166;3.640;2022-09-09T03:14:23;100601.22;;;14.27;100.00
74103;BME280;62853;46.166;3.640;2022-09-09T03:16:53;100608.66;;;14.22;100.00
74103;BME280;62853;46.166;3.640;2022-09-09T03:19:19;100604.94;;;14.25;100.00
74103;BME280;62853;46.166;3.640;2022-09-09T03:21:48;100603.19;;;14.12;100.00
74103;BME280;62853;46.166;3.640;2022-09-09T03:24:15;100613.78;;;14.12;100.00
74103;BME280;62853;46.166;3.640;2022-09-09T03:26:41;100610.72;;;14.19;100.00
74103;BME280;62853;46.166;3.640;2022-09-09T03:29:10;100615.13;;;14.18;100.00
74103;BME280;62853;46.166;3.640;2022-09-09T03:31:37;100622.97;;;14.20;100.00
74103;BME280;62853;46.166;3.640;2022-09-09T03:34:03;100606.47;;;14.16;100.00
74103;BME280;62853;46.166;3.640;2022-09-09T03:36:29;100611.03;;;14.14;100.00
74103;BME280;62853;46.166;3.640;2022-09-09T03:38:54;100611.16;;;14.12;100.00
74103;BME280;62853;46.166;3.640;2022-09-09T03:41:21;100606.88;;;13.99;100.00
74103;BME280;62853;46.166;3.640;2022-09-09T03:43:51;100617.34;;;14.00;100.00
74103;BME280;62853;46.166;3.640;2022-09-09T03:46:18;100615.66;;;13.99;100.00
74103;BME280;62853;46.166;3.640;2022-09-09T03:48:43;100614.22;;;14.06;100.00
74103;BME280;62853;46.166;3.640;2022-09-09T03:51:09;100616.72;;;13.97;100.00
74103;BME280;62853;46.166;3.640;2022-09-09T03:53:35;100619.13;;;14.00;100.00
74103;BME280;62853;46.166;3.640;2022-09-09T03:56:04;100619.69;;;14.16;100.00
74103;BME280;62853;46.166;3.640;2022-09-09T03:58:32;100607.03;;;14.08;100.00
74103;BME280;62853;46.166;3.640;2022-09-09T04:00:59;100608.72;;;14.09;100.00
74103;BME280;62853;46.166;3.640;2022-09-09T04:03:26;100613.69;;;14.14;100.00
74103;BME280;62853;46.166;3.640;2022-09-09T04:05:52;100615.78;;;14.22;100.00
74103;BME280;62853;46.166;3.640;2022-09-09T04:08:19;100610.00;;;14.28;100.00
74103;BME280;62853;46.166;3.640;2022-09-09T04:10:46;100613.34;;;14.19;100.00
74103;BME280;62853;46.166;3.640;2022-09-09T04:13:12;100608.56;;;14.24;100.00
74103;BME280;62853;46.166;3.640;2022-09-09T04:15:39;100603.16;;;14.25;100.00
74103;BME280;62853;46.166;3.640;2022-09-09T04:18:04;100603.88;;;14.27;100.00
74103;BME280;62853;46.166;3.640;2022-09-09T04:20:30;100607.19;;;14.18;100.00
74103;BME280;62853;46.166;3.640;2022-09-09T04:22:55;100601.88;;;14.18;100.00
74103;BME280;62853;46.166;3.640;2022-09-09T04:25:21;100602.03;;;14.17;100.00
74103;BME280;62853;46.166;3.640;2022-09-09T04:27:46;100591.28;;;14.18;100.00
74103;BME280;62853;46.166;3.640;2022-09-09T04:30:12;100590.84;;;14.24;100.00
74103;BME280;62853;46.166;3.640;2022-09-09T04:32:38;100596.38;;;14.21;100.00
74103;BME280;62853;46.166;3.640;2022-09-09T04:35:03;100590.34;;;14.19;100.00
74103;BME280;62853;46.166;3.640;2022-09-09T04:37:29;100576.16;;;14.20;100.00
74103;BME280;62853;46.166;3.640;2022-09-09T04:39:54;100591.88;;;14.10;100.00
74103;BME280;62853;46.166;3.640;2022-09-09T04:42:20;100587.81;;;14.18;100.00
74103;BME280;62853;46.166;3.640;2022-09-09T04:44:45;100583.34;;;14.18;100.00
74103;BME280;62853;46.166;3.640;2022-09-09T04:47:11;100578.91;;;14.19;100.00
74103;BME280;62853;46.166;3.640;2022-09-09T04:49:37;100583.34;;;14.18;100.00
74103;BME280;62853;46.166;3.640;2022-09-09T04:52:03;100581.56;;;14.19;100.00
74103;BME280;62853;46.166;3.640;2022-09-09T04:54:29;100585.16;;;14.18;100.00
74103;BME280;62853;46.166;3.640;2022-09-09T04:56:55;100578.81;;;14.20;100.00
74103;BME280;62853;46.166;3.640;2022-09-09T04:59:21;100577.22;;;14.18;100.00
74103;BME280;62853;46.166;3.640;2022-09-09T05:01:47;100573.94;;;14.14;100.00
74103;BME280;62853;46.166;3.640;2022-09-09T05:04:12;100584.22;;;14.19;100.00
74103;BME280;62853;46.166;3.640;2022-09-09T05:06:39;100573.56;;;14.07;100.00
74103;BME280;62853;46.166;3.640;2022-09-09T05:09:05;100583.09;;;14.10;100.00
74103;BME280;62853;46.166;3.640;2022-09-09T05:11:32;100577.44;;;14.14;100.00
74103;BME280;62853;46.166;3.640;2022-09-09T05:13:58;100574.66;;;14.05;100.00
74103;BME280;62853;46.166;3.640;2022-09-09T05:16:23;100569.00;;;14.09;100.00
74103;BME280;62853;46.166;3.640;2022-09-09T05:18:49;100578.97;;;14.06;100.00
74103;BME280;62853;46.166;3.640;2022-09-09T05:21:17;100575.25;;;14.08;100.00
74103;BME280;62853;46.166;3.640;2022-09-09T05:23:42;100565.13;;;14.02;100.00
74103;BME280;62853;46.166;3.640;2022-09-09T05:26:13;100577.41;;;14.03;100.00
74103;BME280;62853;46.166;3.640;2022-09-09T05:28:39;100577.75;;;13.99;100.00
74103;BME280;62853;46.166;3.640;2022-09-09T05:31:06;100581.63;;;14.06;100.00
74103;BME280;62853;46.166;3.640;2022-09-09T05:33:38;100575.94;;;13.99;100.00
74103;BME280;62853;46.166;3.640;2022-09-09T05:36:11;100579.31;;;14.01;100.00
74103;BME280;62853;46.166;3.640;2022-09-09T05:38:39;100583.31;;;14.07;100.00
74103;BME280;62853;46.166;3.640;2022-09-09T05:41:06;100577.63;;;14.00;100.00
74103;BME280;62853;46.166;3.640;2022-09-09T05:43:32;100576.75;;;14.00;100.00
74103;BME280;62853;46.166;3.640;2022-09-09T05:48:34;100588.00;;;14.03;100.00
74103;BME280;62853;46.166;3.640;2022-09-09T05:51:00;100595.47;;;14.09;100.00
74103;BME280;62853;46.166;3.640;2022-09-09T05:53:26;100601.38;;;14.13;100.00
74103;BME280;62853;46.166;3.640;2022-09-09T05:56:30;100595.44;;;14.22;100.00
74103;BME280;62853;46.166;3.640;2022-09-09T05:58:58;100597.75;;;14.27;100.00
74103;BME280;62853;46.166;3.640;2022-09-09T06:01:27;100599.63;;;14.25;100.00
74103;BME280;62853;46.166;3.640;2022-09-09T06:03:53;100605.56;;;14.28;100.00
74103;BME280;62853;46.166;3.640;2022-09-09T06:06:23;100585.38;;;14.14;100.00
74103;BME280;62853;46.166;3.640;2022-09-09T06:08:52;100596.38;;;14.21;100.00
74103;BME280;62853;46.166;3.640;2022-09-09T06:11:27;100599.63;;;14.25;100.00
74103;BME280;62853;46.166;3.640;2022-09-09T06:13:53;100600.63;;;14.35;100.00
74103;BME280;62853;46.166;3.640;2022-09-09T06:16:21;100593.34;;;14.74;100.00
74103;BME280;62853;46.166;3.640;2022-09-09T06:18:49;100589.50;;;15.01;100.00
74103;BME280;62853;46.166;3.640;2022-09-09T06:21:21;100580.13;;;15.08;100.00
74103;BME280;62853;46.166;3.640;2022-09-09T06:23:47;100591.00;;;15.16;100.00
74103;BME280;62853;46.166;3.640;2022-09-09T06:26:19;100589.06;;;15.18;100.00
74103;BME280;62853;46.166;3.640;2022-09-09T06:28:46;100593.75;;;15.26;100.00
74103;BME280;62853;46.166;3.640;2022-09-09T06:31:14;100595.91;;;15.21;100.00
74103;BME280;62853;46.166;3.640;2022-09-09T06:33:42;100589.66;;;15.11;100.00
74103;BME280;62853;46.166;3.640;2022-09-09T06:36:13;100591.22;;;15.36;100.00
74103;BME280;62853;46.166;3.640;2022-09-09T06:38:40;100595.69;;;15.47;100.00
74103;BME280;62853;46.166;3.640;2022-09-09T06:41:06;100590.63;;;15.43;100.00
74103;BME280;62853;46.166;3.640;2022-09-09T06:43:32;100588.56;;;15.58;100.00
74103;BME280;62853;46.166;3.640;2022-09-09T06:46:01;100587.22;;;15.53;100.00
74103;BME280;62853;46.166;3.640;2022-09-09T06:48:27;100583.00;;;15.84;100.00
74103;BME280;62853;46.166;3.640;2022-09-09T06:51:07;100578.84;;;15.91;100.00
74103;BME280;62853;46.166;3.640;2022-09-09T06:53:34;100580.38;;;16.05;100.00
74103;BME280;62853;46.166;3.640;2022-09-09T06:56:30;100582.19;;;16.05;100.00
74103;BME280;62853;46.166;3.640;2022-09-09T06:58:57;100574.81;;;16.08;100.00
74103;BME280;62853;46.166;3.640;2022-09-09T07:01:35;100572.22;;;16.29;100.00
74103;BME280;62853;46.166;3.640;2022-09-09T07:04:02;100579.31;;;16.29;100.00
74103;BME280;62853;46.166;3.640;2022-09-09T07:06:31;100588.88;;;16.31;100.00
74103;BME280;62853;46.166;3.640;2022-09-09T07:08:59;100589.16;;;16.49;100.00
74103;BME280;62853;46.166;3.640;2022-09-09T07:11:30;100592.59;;;16.61;100.00
74103;BME280;62853;46.166;3.640;2022-09-09T07:13:57;100580.59;;;16.67;100.00
74103;BME280;62853;46.166;3.640;2022-09-09T07:16:24;100583.44;;;16.75;100.00
74103;BME280;62853;46.166;3.640;2022-09-09T07:18:50;100583.81;;;16.70;100.00
74103;BME280;62853;46.166;3.640;2022-09-09T07:21:16;100582.94;;;17.02;100.00
74103;BME280;62853;46.166;3.640;2022-09-09T07:23:42;100579.16;;;16.84;100.00
74103;BME280;62853;46.166;3.640;2022-09-09T07:26:17;100580.72;;;16.86;100.00
74103;BME280;62853;46.166;3.640;2022-09-09T07:28:44;100581.94;;;16.82;100.00
74103;BME280;62853;46.166;3.640;2022-09-09T07:31:22;100581.63;;;16.76;100.00
74103;BME280;62853;46.166;3.640;2022-09-09T07:33:49;100582.06;;;16.81;100.00
74103;BME280;62853;46.166;3.640;2022-09-09T07:36:16;100588.38;;;16.80;100.00
74103;BME280;62853;46.166;3.640;2022-09-09T07:38:45;100589.44;;;16.88;100.00
74103;BME280;62853;46.166;3.640;2022-09-09T07:41:14;100578.44;;;16.82;100.00
74103;BME280;62853;46.166;3.640;2022-09-09T07:43:41;100585.78;;;16.89;100.00
74103;BME280;62853;46.166;3.640;2022-09-09T07:46:08;100583.69;;;16.93;100.00
74103;BME280;62853;46.166;3.640;2022-09-09T07:48:33;100574.78;;;16.83;100.00
74103;BME280;62853;46.166;3.640;2022-09-09T07:51:11;100583.75;;;16.82;100.00
74103;BME280;62853;46.166;3.640;2022-09-09T07:53:42;100582.47;;;16.97;100.00
74103;BME280;62853;46.166;3.640;2022-09-09T07:56:15;100581.22;;;17.01;100.00
74103;BME280;62853;46.166;3.640;2022-09-09T07:58:48;100586.38;;;16.93;100.00
74103;BME280;62853;46.166;3.640;2022-09-09T08:01:26;100589.47;;;16.98;100.00
74103;BME280;62853;46.166;3.640;2022-09-09T08:03:59;100590.22;;;17.00;100.00
74103;BME280;62853;46.166;3.640;2022-09-09T08:06:27;100587.09;;;16.95;100.00
74103;BME280;62853;46.166;3.640;2022-09-09T08:08:53;100594.72;;;17.09;100.00
74103;BME280;62853;46.166;3.640;2022-09-09T08:11:20;100589.31;;;17.21;100.00
74103;BME280;62853;46.166;3.640;2022-09-09T08:13:48;100590.25;;;17.41;100.00
74103;BME280;62853;46.166;3.640;2022-09-09T08:16:18;100597.56;;;17.58;100.00
74103;BME280;62853;46.166;3.640;2022-09-09T08:18:47;100582.44;;;17.49;100.00
74103;BME280;62853;46.166;3.640;2022-09-09T08:21:14;100591.41;;;17.58;100.00
74103;BME280;62853;46.166;3.640;2022-09-09T08:23:43;100588.44;;;17.51;100.00
74103;BME280;62853;46.166;3.640;2022-09-09T08:26:13;100589.97;;;17.44;100.00
74103;BME280;62853;46.166;3.640;2022-09-09T08:28:40;100589.97;;;17.44;100.00
74103;BME280;62853;46.166;3.640;2022-09-09T08:31:14;100594.56;;;17.42;100.00
74103;BME280;62853;46.166;3.640;2022-09-09T08:33:41;100590.53;;;17.47;100.00
74103;BME280;62853;46.166;3.640;2022-09-09T08:36:10;100590.63;;;17.36;97.88
74103;BME280;62853;46.166;3.640;2022-09-09T08:38:36;100586.72;;;17.40;100.00
74103;BME280;62853;46.166;3.640;2022-09-09T08:44:21;100592.03;;;17.31;100.00
74103;BME280;62853;46.166;3.640;2022-09-09T08:47:03;100604.47;;;17.30;100.00
74103;BME280;62853;46.166;3.640;2022-09-09T08:52:30;100602.53;;;17.32;100.00
74103;BME280;62853;46.166;3.640;2022-09-09T08:55:01;100594.94;;;17.27;100.00
74103;BME280;62853;46.166;3.640;2022-09-09T08:57:28;100608.53;;;17.24;97.29
74103;BME280;62853;46.166;3.640;2022-09-09T08:59:56;100600.97;;;17.29;100.00
74103;BME280;62853;46.166;3.640;2022-09-09T09:03:18;100611.84;;;17.17;98.43
74103;BME280;62853;46.166;3.640;2022-09-09T09:05:36;100611.00;;;17.16;100.00
74103;BME280;62853;46.166;3.640;2022-09-09T09:11:03;100623.22;;;17.19;100.00
74103;BME280;62853;46.166;3.640;2022-09-09T09:16:33;100637.63;;;17.16;100.00
74103;BME280;62853;46.166;3.640;2022-09-09T09:18:59;100634.63;;;17.09;100.00
74103;BME280;62853;46.166;3.640;2022-09-09T09:21:38;100632.53;;;17.13;100.00
74103;BME280;62853;46.166;3.640;2022-09-09T09:24:11;100620.22;;;17.12;100.00
74103;BME280;62853;46.166;3.640;2022-09-09T09:26:42;100624.38;;;17.05;98.41
74103;BME280;62853;46.166;3.640;2022-09-09T09:29:26;100626.13;;;17.16;100.00
74103;BME280;62853;46.166;3.640;2022-09-09T09:31:53;100628.13;;;17.23;100.00
74103;BME280;62853;46.166;3.640;2022-09-09T09:34:20;100623.09;;;17.30;100.00
74103;BME280;62853;46.166;3.640;2022-09-09T09:36:56;100626.66;;;17.40;100.00
74103;BME280;62853;46.166;3.640;2022-09-09T09:39:30;100618.66;;;17.40;95.00
74103;BME280;62853;46.166;3.640;2022-09-09T09:41:57;100627.41;;;17.52;96.19
74103;BME280;62853;46.166;3.640;2022-09-09T09:44:29;100620.44;;;17.61;99.92
74103;BME280;62853;46.166;3.640;2022-09-09T09:47:10;100626.31;;;17.55;99.60
74103;BME280;62853;46.166;3.640;2022-09-09T09:49:37;100623.16;;;17.40;100.00
74103;BME280;62853;46.166;3.640;2022-09-09T09:52:04;100623.34;;;17.17;98.71
74103;BME280;62853;46.166;3.640;2022-09-09T09:54:33;100626.72;;;17.19;100.00
74103;BME280;62853;46.166;3.640;2022-09-09T09:57:11;100630.19;;;17.20;100.00
74103;BME280;62853;46.166;3.640;2022-09-09T09:59:37;100626.13;;;17.16;100.00
74103;BME280;62853;46.166;3.640;2022-09-09T10:02:26;100625.81;;;17.09;100.00
74103;BME280;62853;46.166;3.640;2022-09-09T10:05:02;100633.72;;;16.99;100.00
74103;BME280;62853;46.166;3.640;2022-09-09T10:07:28;100629.69;;;17.05;100.00
74103;BME280;62853;46.166;3.640;2022-09-09T10:09:57;100628.47;;;16.88;99.76
74103;BME280;62853;46.166;3.640;2022-09-09T10:18:22;100638.91;;;16.80;100.00
74103;BME280;62853;46.166;3.640;2022-09-09T10:21:11;100640.91;;;16.66;100.00
74103;BME280;62853;46.166;3.640;2022-09-09T10:24:11;100655.97;;;16.56;100.00
74103;BME280;62853;46.166;3.640;2022-09-09T10:32:36;100645.16;;;16.36;100.00
74103;BME280;62853;46.166;3.640;2022-09-09T10:35:31;100660.19;;;16.47;100.00
74103;BME280;62853;46.166;3.640;2022-09-09T10:38:21;100656.81;;;16.45;100.00
74103;BME280;62853;46.166;3.640;2022-09-09T10:46:20;100658.75;;;16.54;100.00
74103;BME280;62853;46.166;3.640;2022-09-09T10:55:16;100650.25;;;16.82;100.00
74103;BME280;62853;46.166;3.640;2022-09-09T10:57:46;100636.50;;;16.77;100.00
74103;BME280;62853;46.166;3.640;2022-09-09T11:00:19;100636.09;;;16.81;100.00
74103;BME280;62853;46.166;3.640;2022-09-09T11:02:55;100636.50;;;16.77;100.00
74103;BME280;62853;46.166;3.640;2022-09-09T11:08:09;100641.28;;;16.94;100.00
74103;BME280;62853;46.166;3.640;2022-09-09T11:10:53;100641.53;;;17.12;100.00
74103;BME280;62853;46.166;3.640;2022-09-09T11:13:33;100642.09;;;17.16;100.00
74103;BME280;62853;46.166;3.640;2022-09-09T11:16:17;100643.19;;;17.13;100.00
74103;BME280;62853;46.166;3.640;2022-09-09T11:18:46;100648.38;;;17.15;100.00
74103;BME280;62853;46.166;3.640;2022-09-09T11:21:24;100635.41;;;17.21;100.00
74103;BME280;62853;46.166;3.640;2022-09-09T11:23:56;100647.44;;;17.16;100.00
74103;BME280;62853;46.166;3.640;2022-09-09T11:26:30;100632.34;;;17.26;100.00
74103;BME280;62853;46.166;3.640;2022-09-09T11:29:19;100635.75;;;17.38;100.00
74103;BME280;62853;46.166;3.640;2022-09-09T11:42:25;100642.72;;;17.29;100.00
74103;BME280;62853;46.166;3.640;2022-09-09T11:44:51;100635.41;;;17.21;100.00
74103;BME280;62853;46.166;3.640;2022-09-09T11:47:25;100637.88;;;17.13;100.00
74103;BME280;62853;46.166;3.640;2022-09-09T11:49:55;100639.88;;;17.21;100.00
74103;BME280;62853;46.166;3.640;2022-09-09T11:52:25;100643.50;;;17.20;100.00
74103;BME280;62853;46.166;3.640;2022-09-09T11:55:12;100633.59;;;17.22;100.00
74103;BME280;62853;46.166;3.640;2022-09-09T11:57:57;100628.44;;;17.30;100.00
74103;BME280;62853;46.166;3.640;2022-09-09T12:02:56;100631.97;;;17.40;100.00
74103;BME280;62853;46.166;3.640;2022-09-09T12:05:21;100626.25;;;17.45;100.00
74103;BME280;62853;46.166;3.640;2022-09-09T12:07:58;100626.75;;;17.60;100.00
74103;BME280;62853;46.166;3.640;2022-09-09T12:10:28;100629.31;;;17.71;100.00
74103;BME280;62853;46.166;3.640;2022-09-09T12:12:54;100629.75;;;17.76;100.00
74103;BME280;62853;46.166;3.640;2022-09-09T12:15:26;100629.19;;;17.82;100.00
74103;BME280;62853;46.166;3.640;2022-09-09T12:17:55;100622.38;;;17.90;100.00
74103;BME280;62853;46.166;3.640;2022-09-09T12:20:36;100621.66;;;17.97;100.00
74103;BME280;62853;46.166;3.640;2022-09-09T12:23:18;100615.50;;;17.97;100.00
74103;BME280;62853;46.166;3.640;2022-09-09T12:28:31;100614.13;;;17.93;98.80
74103;BME280;62853;46.166;3.640;2022-09-09T12:31:26;100617.69;;;17.82;98.44
74103;BME280;62853;46.166;3.640;2022-09-09T12:34:04;100613.50;;;17.79;100.00
74103;BME280;62853;46.166;3.640;2022-09-09T12:36:35;100613.06;;;17.74;100.00
74103;BME280;62853;46.166;3.640;2022-09-09T12:39:10;100603.34;;;17.63;100.00
74103;BME280;62853;46.166;3.640;2022-09-09T12:41:40;100613.69;;;17.57;95.08
74103;BME280;62853;46.166;3.640;2022-09-09T12:44:09;100605.03;;;17.64;100.00
74103;BME280;62853;46.166;3.640;2022-09-09T12:46:41;100602.09;;;17.67;97.92
74103;BME280;62853;46.166;3.640;2022-09-09T12:52:20;100598.88;;;17.74;99.62
74103;BME280;62853;46.166;3.640;2022-09-09T12:54:48;100586.13;;;17.77;100.00
74103;BME280;62853;46.166;3.640;2022-09-09T12:57:16;100597.19;;;17.82;98.51
74103;BME280;62853;46.166;3.640;2022-09-09T12:59:43;100595.13;;;17.76;96.50
74103;BME280;62853;46.166;3.640;2022-09-09T13:02:22;100598.06;;;17.83;99.39
74103;BME280;62853;46.166;3.640;2022-09-09T13:04:48;100600.63;;;17.94;100.00
74103;BME280;62853;46.166;3.640;2022-09-09T13:07:16;100599.94;;;18.02;99.76
74103;BME280;62853;46.166;3.640;2022-09-09T13:09:43;100593.34;;;18.06;95.31
74103;BME280;62853;46.166;3.640;2022-09-09T13:12:21;100585.81;;;18.11;99.42
74103;BME280;62853;46.166;3.640;2022-09-09T13:14:50;100590.41;;;18.19;96.05
74103;BME280;62853;46.166;3.640;2022-09-09T13:17:24;100579.63;;;18.30;97.48
74103;BME280;62853;46.166;3.640;2022-09-09T13:19:52;100580.31;;;18.32;98.75
74103;BME280;62853;46.166;3.640;2022-09-09T13:22:34;100586.47;;;18.33;95.87
74103;BME280;62853;46.166;3.640;2022-09-09T13:25:05;100589.44;;;18.30;96.45
74103;BME280;62853;46.166;3.640;2022-09-09T13:27:39;100584.09;;;18.10;98.40
74103;BME280;62853;46.166;3.640;2022-09-09T13:38:14;100586.53;;;17.63;100.00
74103;BME280;62853;46.166;3.640;2022-09-09T13:40:40;100576.88;;;17.72;100.00
74103;BME280;62853;46.166;3.640;2022-09-09T13:43:17;100585.44;;;17.85;100.00
74103;BME280;62853;46.166;3.640;2022-09-09T13:45:53;100589.13;;;17.94;100.00
74103;BME280;62853;46.166;3.640;2022-09-09T13:48:19;100586.19;;;17.97;100.00
74103;BME280;62853;46.166;3.640;2022-09-09T13:50:55;100587.59;;;18.01;100.00
74103;BME280;62853;46.166;3.640;2022-09-09T13:53:20;100574.84;;;17.95;98.89
74103;BME280;62853;46.166;3.640;2022-09-09T13:55:45;100572.31;;;17.93;100.00
74103;BME280;62853;46.166;3.640;2022-09-09T13:58:15;100576.94;;;18.01;97.43
74103;BME280;62853;46.166;3.640;2022-09-09T14:00:43;100574.00;;;18.14;98.31
74103;BME280;62853;46.166;3.640;2022-09-09T14:03:10;100579.59;;;18.01;95.67
74103;BME280;62853;46.166;3.640;2022-09-09T14:05:35;100571.75;;;17.90;96.24
74103;BME280;62853;46.166;3.640;2022-09-09T14:08:03;100582.28;;;17.91;99.71
74103;BME280;62853;46.166;3.640;2022-09-09T14:10:29;100572.84;;;17.87;98.96
74103;BME280;62853;46.166;3.640;2022-09-09T14:12:55;100572.41;;;17.82;97.54
74103;BME280;62853;46.166;3.640;2022-09-09T14:15:21;100579.56;;;17.81;99.55
74103;BME280;62853;46.166;3.640;2022-09-09T14:17:47;100577.03;;;17.80;98.86
74103;BME280;62853;46.166;3.640;2022-09-09T14:20:13;100572.09;;;17.75;98.67
74103;BME280;62853;46.166;3.640;2022-09-09T14:22:42;100578.13;;;17.77;99.06
74103;BME280;62853;46.166;3.640;2022-09-09T14:25:09;100572.84;;;17.87;98.40
74103;BME280;62853;46.166;3.640;2022-09-09T14:27:34;100574.84;;;17.95;97.43
74103;BME280;62853;46.166;3.640;2022-09-09T14:30:00;100576.09;;;18.00;94.22